Time;durP1;ratioP1;P1;durP2;ratioP2;P2;SDS_P1;SDS_P2;PMS_P1;PMS_P2;Temp;Humidity;BMP_temperature;BMP_pressure;BME280_temperature;BME280_humidity;BME280_pressure;Samples;Min_cycle;Max_cycle;Signal;HPM_P1;HPM_P2
2021/10/06 00:00:07;;;;;;;15.68;11.27;;;;;;;9.72;93.96;93858.16;5032466;28;20046;-83
2021/10/06 00:02:36;;;;;;;14.25;10.77;;;;;;;9.75;93.18;93866.28;5032660;28;20432;-83
2021/10/06 00:05:04;;;;;;;13.48;10.55;;;;;;;9.79;92.31;93868.44;5032434;28;20056;-83
2021/10/06 00:07:30;;;;;;;14.57;11.80;;;;;;;9.80;92.78;93865.69;5032684;28;20046;-82
2021/10/06 00:09:57;;;;;;;12.57;10.90;;;;;;;9.80;92.61;93859.75;5032346;28;20508;-83
2021/10/06 00:12:24;;;;;;;12.93;10.75;;;;;;;9.83;92.54;93867.91;5032304;28;20050;-83
2021/10/06 00:14:51;;;;;;;14.48;10.88;;;;;;;9.40;93.04;93804.66;5032415;28;20060;-83
2021/10/06 00:17:18;;;;;;;14.55;11.52;;;;;;;9.80;92.67;93849.50;5032238;28;20061;-83
2021/10/06 00:19:46;;;;;;;13.55;12.15;;;;;;;9.91;92.39;93850.75;5032514;28;20072;-82
2021/10/06 00:22:13;;;;;;;14.50;11.93;;;;;;;9.91;91.80;93838.75;5032111;28;20045;-82
2021/10/06 00:24:40;;;;;;;13.70;11.55;;;;;;;9.95;91.98;93849.41;5032364;28;20054;-82
2021/10/06 00:27:07;;;;;;;16.00;11.60;;;;;;;9.96;92.35;93849.19;5032184;28;20099;-82
2021/10/06 00:29:34;;;;;;;14.80;12.55;;;;;;;9.68;93.57;93824.38;5032390;28;20049;-82
2021/10/06 00:32:01;;;;;;;14.40;11.93;;;;;;;9.89;92.90;93844.06;5024459;28;20038;-82
2021/10/06 00:34:27;;;;;;;15.63;11.98;;;;;;;9.83;94.12;93838.88;5012796;28;20449;-82
2021/10/06 00:36:56;;;;;;;15.13;12.32;;;;;;;9.77;94.70;93819.91;5017719;28;20052;-82
2021/10/06 00:39:23;;;;;;;16.65;12.48;;;;;;;9.82;94.64;93820.09;5032019;28;20504;-82
2021/10/06 00:41:49;;;;;;;14.73;12.13;;;;;;;9.74;93.85;93786.94;5031221;28;20057;-82
2021/10/06 00:44:17;;;;;;;17.77;12.77;;;;;;;9.92;93.25;93814.66;5031684;28;20049;-82
2021/10/06 00:46:44;;;;;;;14.75;12.05;;;;;;;10.03;92.34;93819.25;5031213;28;20046;-82
2021/10/06 00:49:11;;;;;;;14.23;11.93;;;;;;;9.88;92.93;93782.66;5032108;28;20049;-82
2021/10/06 00:51:39;;;;;;;13.20;11.50;;;;;;;10.14;92.37;93815.31;5031874;28;20060;-83
2021/10/06 00:54:08;;;;;;;14.77;12.60;;;;;;;10.15;92.73;93811.00;5031601;28;20049;-83
2021/10/06 00:56:35;;;;;;;17.52;13.98;;;;;;;10.07;93.95;93798.31;5031901;28;20049;-83
2021/10/06 00:59:02;;;;;;;17.67;13.10;;;;;;;10.12;93.12;93795.97;5032114;28;20065;-82
2021/10/06 01:01:29;;;;;;;18.35;14.23;;;;;;;10.18;93.25;93789.28;5031330;28;20045;-82
2021/10/06 01:03:56;;;;;;;22.00;14.57;;;;;;;10.15;93.75;93790.47;5031171;28;20057;-83
2021/10/06 01:06:23;;;;;;;25.20;15.55;;;;;;;9.97;95.29;93778.16;5031715;28;20045;-83
2021/10/06 01:08:50;;;;;;;18.88;14.63;;;;;;;9.90;92.55;93765.28;5031605;28;20053;-83
2021/10/06 01:11:19;;;;;;;17.65;13.23;;;;;;;10.18;92.97;93799.56;5031548;28;20053;-83
2021/10/06 01:13:47;;;;;;;13.75;11.77;;;;;;;10.02;95.91;93781.72;5031447;28;20053;-83
2021/10/06 01:16:14;;;;;;;15.25;12.35;;;;;;;9.96;96.12;93777.34;5031537;28;20107;-83
2021/10/06 01:18:41;;;;;;;15.75;11.57;;;;;;;10.03;94.44;93785.06;5031358;28;20045;-83
2021/10/06 01:21:12;;;;;;;15.48;11.45;;;;;;;10.11;93.62;93791.81;5031431;28;20111;-83
2021/10/06 01:23:39;;;;;;;16.45;13.30;;;;;;;10.08;94.86;93784.50;5031207;28;20057;-83
2021/10/06 01:26:06;;;;;;;17.85;12.02;;;;;;;9.96;95.43;93776.56;5031050;28;20045;-83
2021/10/06 01:28:33;;;;;;;16.27;11.60;;;;;;;10.00;96.29;93786.25;5031336;28;20049;-83
2021/10/06 01:31:00;;;;;;;20.95;12.57;;;;;;;9.85;96.26;93780.44;5031153;28;20492;-84
2021/10/06 01:33:27;;;;;;;17.63;12.60;;;;;;;9.99;96.22;93797.50;5030991;28;20057;-83
2021/10/06 01:35:54;;;;;;;21.35;14.40;;;;;;;9.67;98.65;93788.69;5031221;28;21032;-83
2021/10/06 01:38:22;;;;;;;21.67;14.13;;;;;;;9.35;100.00;93773.66;5030827;28;20050;-83
2021/10/06 01:40:49;;;;;;;19.77;15.52;;;;;;;9.45;99.29;93784.38;5031137;28;20052;-83
2021/10/06 01:43:16;;;;;;;22.88;16.88;;;;;;;9.55;98.98;93784.06;5030477;28;20064;-84
2021/10/06 01:45:43;;;;;;;16.85;13.35;;;;;;;9.73;97.20;93800.75;5031005;28;20054;-83
2021/10/06 01:48:12;;;;;;;17.48;13.65;;;;;;;9.84;96.29;93802.78;5030814;28;20496;-83
2021/10/06 01:50:41;;;;;;;21.17;14.63;;;;;;;9.93;96.23;93805.97;5030747;28;20058;-83
2021/10/06 01:53:09;;;;;;;18.25;15.68;;;;;;;10.07;96.10;93800.88;5030853;28;20427;-83
2021/10/06 01:55:37;;;;;;;20.90;14.80;;;;;;;10.00;94.14;93775.22;5030328;28;20508;-83
2021/10/06 01:58:07;;;;;;;26.23;17.10;;;;;;;10.13;94.31;93792.41;5030791;28;20049;-83
2021/10/06 02:00:34;;;;;;;26.67;18.83;;;;;;;10.21;96.23;93810.22;5030683;28;20420;-82
2021/10/06 02:03:01;;;;;;;24.67;19.25;;;;;;;10.22;95.41;93814.38;5030644;28;20053;-83
2021/10/06 02:05:28;;;;;;;26.65;18.13;;;;;;;10.04;97.03;93786.66;5030601;28;20053;-83
2021/10/06 02:07:55;;;;;;;30.83;20.30;;;;;;;9.92;99.35;93801.81;5030607;28;20065;-83
2021/10/06 02:10:22;;;;;;;28.85;18.92;;;;;;;9.88;99.17;93800.63;5030166;28;20042;-83
2021/10/06 02:12:50;;;;;;;27.42;19.13;;;;;;;10.00;97.41;93798.31;5030528;28;20049;-83
2021/10/06 02:15:17;;;;;;;29.70;19.48;;;;;;;10.07;96.41;93801.69;5029255;28;20042;-83
2021/10/06 02:17:44;;;;;;;31.42;18.92;;;;;;;10.13;95.45;93797.53;5030193;28;20064;-82
2021/10/06 02:20:11;;;;;;;28.35;20.33;;;;;;;10.32;95.36;93811.44;5030102;28;20041;-83
2021/10/06 02:22:38;;;;;;;29.50;19.15;;;;;;;10.35;96.49;93808.50;5029732;28;20046;-84
2021/10/06 02:25:07;;;;;;;28.08;19.02;;;;;;;9.64;97.20;93720.59;5030304;28;20054;-84
2021/10/06 02:27:33;;;;;;;31.83;18.17;;;;;;;9.82;96.86;93739.78;5030275;28;20416;-85
2021/10/06 02:30:02;;;;;;;27.65;18.10;;;;;;;10.20;97.34;93803.50;5030423;28;20053;-83
2021/10/06 02:32:29;;;;;;;23.95;16.40;;;;;;;10.19;97.63;93796.00;5029850;28;20049;-84
2021/10/06 02:34:56;;;;;;;29.10;17.83;;;;;;;9.97;97.26;93766.13;5030129;28;20049;-84
2021/10/06 02:37:22;;;;;;;32.38;17.48;;;;;;;10.16;96.62;93794.59;5030144;28;20452;-82
2021/10/06 02:39:49;;;;;;;25.17;17.02;;;;;;;10.06;96.96;93784.69;5029919;28;21561;-81
2021/10/06 02:42:16;;;;;;;25.65;17.88;;;;;;;10.21;95.36;93799.97;5029695;28;20049;-83
2021/10/06 02:44:44;;;;;;;27.50;16.77;;;;;;;10.02;95.44;93755.25;5033887;28;20060;-83
2021/10/06 02:47:13;;;;;;;24.55;16.35;;;;;;;10.29;94.05;93786.94;5031854;28;20393;-83
2021/10/06 02:49:40;;;;;;;24.35;16.05;;;;;;;10.25;93.71;93778.06;5029925;28;20052;-83
2021/10/06 02:52:07;;;;;;;28.73;17.48;;;;;;;10.43;93.31;93790.34;5030030;28;20404;-84
2021/10/06 02:54:34;;;;;;;25.58;16.88;;;;;;;10.46;93.68;93790.97;5029485;28;20056;-83
2021/10/06 02:57:01;;;;;;;23.00;15.75;;;;;;;10.23;93.35;93756.91;5029408;28;20491;-84
2021/10/06 02:59:28;;;;;;;24.27;17.02;;;;;;;10.53;93.32;93790.00;5029421;28;20053;-84
2021/10/06 03:01:55;;;;;;;21.55;16.15;;;;;;;10.22;93.29;93744.25;5029373;28;20053;-84
2021/10/06 03:04:24;;;;;;;25.23;17.48;;;;;;;10.56;93.04;93786.25;5029552;28;20053;-83
2021/10/06 03:06:51;;;;;;;28.15;17.70;;;;;;;10.56;93.07;93784.47;5029714;28;20046;-82
2021/10/06 03:09:19;;;;;;;24.90;18.13;;;;;;;10.50;94.87;93789.56;5029147;28;20064;-82
2021/10/06 03:11:46;;;;;;;26.00;19.05;;;;;;;10.53;93.89;93789.19;5029426;28;20053;-82
2021/10/06 03:14:13;;;;;;;26.13;19.08;;;;;;;10.50;93.78;93779.31;5029258;28;20041;-82
2021/10/06 03:16:40;;;;;;;25.85;17.92;;;;;;;10.46;95.76;93788.41;5029014;28;20049;-83
2021/10/06 03:19:06;;;;;;;25.00;16.73;;;;;;;10.47;94.14;93782.28;5029591;28;20072;-82
2021/10/06 03:21:35;;;;;;;17.55;12.40;;;;;;;10.31;93.87;93783.41;5029103;28;20051;-83
2021/10/06 03:24:01;;;;;;;17.30;11.77;;;;;;;10.31;93.62;93793.69;5029066;28;20493;-83
2021/10/06 03:26:28;;;;;;;11.02;8.90;;;;;;;10.05;93.84;93795.16;5033980;28;20092;-83
2021/10/06 03:28:55;;;;;;;13.60;9.32;;;;;;;9.73;94.80;93781.00;5035636;28;20436;-84
2021/10/06 03:31:22;;;;;;;12.77;8.77;;;;;;;9.46;96.24;93780.06;5035575;28;20527;-85
2021/10/06 03:33:49;;;;;;;11.65;9.23;;;;;;;9.56;96.57;93789.97;5035953;28;20100;-83
2021/10/06 03:36:16;;;;;;;13.43;9.38;;;;;;;9.41;96.96;93782.41;5035744;28;20053;-83
2021/10/06 03:38:44;;;;;;;14.13;8.93;;;;;;;9.16;98.79;93782.84;5035898;28;20056;-83
2021/10/06 03:41:11;;;;;;;14.63;10.73;;;;;;;9.14;99.00;93765.06;5035866;28;20049;-82
2021/10/06 03:43:38;;;;;;;17.17;10.57;;;;;;;8.92;99.69;93747.19;5035314;28;20507;-83
2021/10/06 03:46:04;;;;;;;12.55;10.32;;;;;;;9.13;99.63;93766.06;5035508;28;20046;-82
2021/10/06 03:48:31;;;;;;;14.70;10.80;;;;;;;8.90;100.00;93751.72;5035786;28;20435;-83
2021/10/06 03:50:58;;;;;;;12.95;10.23;;;;;;;8.85;100.00;93759.16;5035673;28;20053;-82
2021/10/06 03:53:25;;;;;;;12.05;9.65;;;;;;;8.99;100.00;93764.38;5035418;28;20045;-83
2021/10/06 03:55:53;;;;;;;13.00;10.07;;;;;;;9.03;100.00;93774.06;5035410;28;20064;-82
2021/10/06 03:58:20;;;;;;;13.20;9.95;;;;;;;8.84;99.89;93731.16;5035610;28;20050;-83
2021/10/06 04:00:47;;;;;;;12.90;9.93;;;;;;;9.06;99.32;93752.38;5035423;28;20041;-84
2021/10/06 04:03:14;;;;;;;14.70;9.52;;;;;;;9.25;98.87;93768.09;5036188;28;20049;-84
2021/10/06 04:05:42;;;;;;;12.93;10.27;;;;;;;8.99;98.84;93741.31;5036114;28;20049;-84
2021/10/06 04:08:09;;;;;;;12.85;9.90;;;;;;;9.06;99.17;93749.81;5036222;28;20045;-84
2021/10/06 04:10:37;;;;;;;11.52;9.45;;;;;;;9.26;98.92;93770.47;5035681;28;20058;-84
2021/10/06 04:13:05;;;;;;;13.70;9.90;;;;;;;9.34;98.26;93774.66;5035564;28;20362;-86
2021/10/06 04:15:32;;;;;;;14.73;9.65;;;;;;;9.30;97.30;93740.13;5035554;28;20056;-87
2021/10/06 04:18:01;;;;;;;15.98;9.65;;;;;;;9.36;97.13;93742.72;5019496;28;20502;-84
2021/10/06 04:20:27;;;;;;;11.75;9.80;;;;;;;9.40;96.22;93734.66;5013284;28;20637;-84
2021/10/06 04:22:54;;;;;;;12.60;9.93;;;;;;;9.37;95.73;93725.59;5014950;28;20536;-85
2021/10/06 04:25:21;;;;;;;13.35;9.38;;;;;;;9.38;95.59;93723.78;5015490;28;20520;-83
2021/10/06 04:27:48;;;;;;;12.52;9.50;;;;;;;9.67;95.80;93761.22;5015295;28;20057;-83
2021/10/06 04:30:16;;;;;;;15.30;10.02;;;;;;;9.72;95.32;93756.31;5015771;28;20061;-84
2021/10/06 04:32:43;;;;;;;13.52;9.93;;;;;;;9.82;94.52;93765.44;5015620;28;20042;-84
2021/10/06 04:35:11;;;;;;;11.73;9.85;;;;;;;9.86;94.71;93767.44;5015500;28;20068;-86
2021/10/06 04:37:38;;;;;;;11.45;9.32;;;;;;;9.65;94.73;93723.94;5012656;28;20050;-86
2021/10/06 04:40:07;;;;;;;12.45;9.25;;;;;;;9.53;93.98;93705.75;5012425;28;20061;-86
2021/10/06 04:42:34;;;;;;;11.57;9.13;;;;;;;9.98;93.93;93757.44;5011939;28;20492;-86
2021/10/06 04:45:01;;;;;;;11.68;10.07;;;;;;;9.86;93.76;93733.31;5012357;28;20061;-84
2021/10/06 04:47:29;;;;;;;12.25;9.27;;;;;;;10.00;93.54;93747.75;5012320;28;20038;-83
2021/10/06 04:49:56;;;;;;;11.85;9.35;;;;;;;10.13;92.84;93759.84;5011914;28;20112;-83
2021/10/06 04:52:23;;;;;;;13.63;9.27;;;;;;;10.25;92.50;93766.97;5012147;28;20045;-83
2021/10/06 04:54:53;;;;;;;12.80;9.20;;;;;;;10.32;92.67;93770.34;5011727;28;20552;-83
2021/10/06 04:57:20;;;;;;;12.93;10.45;;;;;;;10.37;92.12;93767.22;5012568;28;20050;-84
2021/10/06 04:59:47;;;;;;;10.85;8.90;;;;;;;10.40;91.89;93757.34;5011610;28;20065;-83
2021/10/06 05:02:13;;;;;;;13.40;9.68;;;;;;;10.45;91.82;93754.22;5011924;28;20073;-82
2021/10/06 05:04:42;;;;;;;13.88;9.43;;;;;;;10.49;91.76;93754.59;5011548;28;20057;-82
2021/10/06 05:07:08;;;;;;;11.82;9.70;;;;;;;10.43;92.14;93751.06;5011926;28;20053;-84
2021/10/06 05:09:35;;;;;;;14.70;10.57;;;;;;;10.45;92.90;93749.06;5011569;28;20046;-83
2021/10/06 05:12:02;;;;;;;11.70;10.23;;;;;;;10.19;95.03;93760.84;5011455;28;20046;-83
2021/10/06 05:14:29;;;;;;;13.57;10.05;;;;;;;9.99;95.54;93729.97;5011724;28;20045;-82
2021/10/06 05:16:56;;;;;;;16.85;10.07;;;;;;;9.91;95.81;93725.81;5011546;28;20058;-82
2021/10/06 05:19:23;;;;;;;13.38;10.52;;;;;;;9.83;95.91;93746.50;5011337;28;20054;-83
2021/10/06 05:21:51;;;;;;;14.75;11.57;;;;;;;9.78;95.59;93739.38;5011621;28;20050;-82
2021/10/06 05:24:18;;;;;;;14.02;11.10;;;;;;;9.82;94.90;93735.44;5011369;28;20120;-82
2021/10/06 05:26:44;;;;;;;13.80;11.00;;;;;;;9.84;94.22;93712.16;5011422;28;20057;-82
2021/10/06 05:29:11;;;;;;;15.27;12.63;;;;;;;9.90;93.63;93696.00;5011162;28;20497;-84
2021/10/06 05:31:38;;;;;;;15.15;11.38;;;;;;;10.24;93.03;93732.03;5010986;28;20054;-83
2021/10/06 05:34:05;;;;;;;13.70;10.95;;;;;;;10.33;92.52;93737.78;5011164;28;20494;-83
2021/10/06 05:36:32;;;;;;;17.35;11.90;;;;;;;10.32;92.65;93741.31;5011595;28;20445;-82
2021/10/06 05:39:00;;;;;;;14.25;10.25;;;;;;;10.39;92.35;93734.41;5010776;28;20516;-83
2021/10/06 05:41:27;;;;;;;13.80;10.38;;;;;;;10.42;92.19;93734.81;5011111;28;20048;-83
2021/10/06 05:43:54;;;;;;;14.45;10.40;;;;;;;10.53;91.95;93733.50;5010859;28;20056;-83
2021/10/06 05:46:21;;;;;;;13.10;9.70;;;;;;;10.39;91.79;93719.00;5010714;28;20054;-83
2021/10/06 05:48:48;;;;;;;14.25;10.60;;;;;;;10.57;91.33;93741.59;5009910;28;20391;-83
2021/10/06 05:51:15;;;;;;;11.20;9.70;;;;;;;10.51;91.17;93729.53;5011077;28;20054;-83
2021/10/06 05:53:42;;;;;;;12.45;9.60;;;;;;;10.59;90.81;93728.56;5010890;28;20053;-83
2021/10/06 05:56:10;;;;;;;13.75;10.70;;;;;;;10.62;91.46;93738.44;5010830;28;20516;-83
2021/10/06 05:58:37;;;;;;;11.75;9.90;;;;;;;10.52;91.02;93718.28;5011105;28;20061;-83
2021/10/06 06:01:04;;;;;;;11.27;9.38;;;;;;;10.32;92.78;93729.25;5011082;28;20050;-84
2021/10/06 06:03:31;;;;;;;17.45;12.43;;;;;;;9.95;93.48;93678.25;5010974;28;20449;-84
2021/10/06 06:05:58;;;;;;;13.73;10.48;;;;;;;10.32;93.09;93744.66;5008229;28;20505;-84
2021/10/06 06:08:24;;;;;;;16.85;12.48;;;;;;;10.32;93.55;93741.31;5009606;28;20445;-85
2021/10/06 06:10:51;;;;;;;14.63;11.07;;;;;;;10.12;93.34;93688.94;5013747;28;20485;-83
2021/10/06 06:13:19;;;;;;;12.98;10.35;;;;;;;10.29;92.96;93721.97;5022978;28;20433;-83
2021/10/06 06:15:51;;;;;;;12.82;11.15;;;;;;;10.50;92.54;93754.41;5011676;28;20079;-83
2021/10/06 06:18:18;;;;;;;13.57;10.55;;;;;;;10.71;91.58;93757.00;5012525;28;20609;-85
2021/10/06 06:20:45;;;;;;;15.80;10.25;;;;;;;10.58;91.71;93739.81;5018558;28;20083;-84
2021/10/06 06:23:12;;;;;;;13.20;9.75;;;;;;;10.91;90.18;93750.09;5020133;28;20072;-84
2021/10/06 06:25:39;;;;;;;13.93;9.95;;;;;;;10.67;89.21;93713.75;5019908;28;20050;-84
2021/10/06 06:28:06;;;;;;;13.48;10.48;;;;;;;10.90;89.15;93756.25;5018373;28;20056;-84
2021/10/06 06:30:34;;;;;;;15.57;11.02;;;;;;;11.17;88.38;93751.09;5019499;28;20047;-84
2021/10/06 06:33:01;;;;;;;17.15;11.10;;;;;;;11.34;87.36;93751.44;5021499;28;20489;-85
2021/10/06 06:35:28;;;;;;;13.55;9.70;;;;;;;11.30;87.14;93734.84;5020735;28;20037;-85
2021/10/06 06:37:55;;;;;;;12.18;9.82;;;;;;;11.39;86.36;93729.50;5020924;28;20046;-84
2021/10/06 06:40:22;;;;;;;12.18;9.60;;;;;;;11.21;86.58;93729.13;5018946;28;20096;-84
2021/10/06 06:42:49;;;;;;;13.38;9.57;;;;;;;11.18;86.49;93726.16;5018931;28;20042;-85
2021/10/06 06:45:15;;;;;;;12.90;9.63;;;;;;;11.29;86.41;93740.19;5018432;28;20125;-85
2021/10/06 06:47:44;;;;;;;14.32;10.35;;;;;;;11.36;86.40;93715.25;5019391;28;20508;-84
2021/10/06 06:50:12;;;;;;;14.07;9.02;;;;;;;11.61;84.34;93742.88;5020115;28;20054;-85
2021/10/06 06:52:39;;;;;;;13.40;9.52;;;;;;;11.62;84.22;93729.81;5018408;28;20046;-84
2021/10/06 06:55:07;;;;;;;11.43;9.43;;;;;;;11.89;82.70;93744.38;5018655;28;20042;-85
2021/10/06 06:57:34;;;;;;;14.57;10.30;;;;;;;11.94;82.47;93736.03;5019982;28;20037;-86
2021/10/06 07:00:01;;;;;;;10.13;8.52;;;;;;;11.49;82.49;93699.00;5018066;28;20437;-86
2021/10/06 07:02:28;;;;;;;14.40;10.60;;;;;;;11.89;84.02;93770.91;5018403;28;20060;-86
2021/10/06 07:04:56;;;;;;;14.60;10.05;;;;;;;11.95;83.18;93740.19;5019788;28;20053;-84
2021/10/06 07:07:23;;;;;;;13.02;9.70;;;;;;;11.89;82.83;93750.31;5018886;28;20490;-83
2021/10/06 07:09:50;;;;;;;11.48;9.23;;;;;;;12.04;82.09;93728.72;5017811;28;20041;-84
2021/10/06 07:12:18;;;;;;;13.52;9.88;;;;;;;12.51;81.56;93769.66;5018105;28;20328;-84
2021/10/06 07:14:45;;;;;;;13.48;10.35;;;;;;;12.35;81.28;93763.22;5020625;28;20516;-85
2021/10/06 07:17:12;;;;;;;13.80;10.13;;;;;;;12.47;80.71;93776.22;5028889;28;20049;-85
2021/10/06 07:19:39;;;;;;;13.05;9.55;;;;;;;12.47;80.54;93757.41;5029111;28;20054;-85
2021/10/06 07:22:08;;;;;;;12.23;9.68;;;;;;;12.69;80.26;93786.22;5029011;28;20471;-84
2021/10/06 07:24:36;;;;;;;12.88;9.20;;;;;;;12.38;80.40;93793.72;5028971;28;20064;-86
2021/10/06 07:27:03;;;;;;;19.05;12.50;;;;;;;11.82;82.26;93720.44;5029302;28;20076;-85
2021/10/06 07:29:30;;;;;;;16.45;11.38;;;;;;;12.65;81.46;93788.41;5028668;28;20046;-85
2021/10/06 07:31:57;;;;;;;12.88;9.10;;;;;;;12.92;80.73;93792.59;5029067;28;20061;-85
2021/10/06 07:34:24;;;;;;;11.88;9.32;;;;;;;12.74;78.57;93737.41;5029220;28;20054;-85
2021/10/06 07:36:51;;;;;;;11.65;9.15;;;;;;;13.43;77.80;93790.78;5029264;28;20049;-85
2021/10/06 07:39:19;;;;;;;11.57;9.23;;;;;;;12.96;78.70;93776.50;5029314;28;20495;-85
2021/10/06 07:41:46;;;;;;;13.88;9.30;;;;;;;12.88;78.77;93737.28;5029132;28;20449;-84
2021/10/06 07:44:14;;;;;;;13.45;9.13;;;;;;;13.30;77.11;93793.50;5028674;28;20050;-85
2021/10/06 07:46:42;;;;;;;13.57;10.48;;;;;;;13.34;78.78;93800.59;5028975;28;20075;-84
2021/10/06 07:49:09;;;;;;;16.25;10.38;;;;;;;13.33;78.39;93796.44;5029484;28;20061;-85
2021/10/06 07:51:36;;;;;;;14.07;11.02;;;;;;;13.63;78.09;93795.00;5028650;28;20064;-84
2021/10/06 07:54:02;;;;;;;13.90;9.35;;;;;;;13.72;76.21;93795.53;5028761;28;20052;-85
2021/10/06 07:56:31;;;;;;;13.55;10.05;;;;;;;13.93;76.68;93786.56;5028914;28;20050;-83
2021/10/06 07:58:58;;;;;;;12.50;9.48;;;;;;;13.24;76.60;93774.47;5028879;28;20049;-87
2021/10/06 08:01:24;;;;;;;14.30;9.65;;;;;;;13.38;76.84;93782.13;5028654;28;20046;-85
2021/10/06 08:03:51;;;;;;;12.90;8.82;;;;;;;13.22;77.78;93727.47;5028806;28;20057;-84
2021/10/06 08:06:19;;;;;;;11.45;8.65;;;;;;;14.21;76.95;93794.81;5028436;28;20053;-85
2021/10/06 08:08:46;;;;;;;14.20;9.65;;;;;;;14.04;75.29;93748.91;5028567;28;20081;-85
2021/10/06 08:11:13;;;;;;;13.88;9.23;;;;;;;14.65;74.04;93790.25;5028891;28;20045;-85
2021/10/06 08:13:41;;;;;;;11.75;8.65;;;;;;;14.75;72.22;93799.28;5031540;28;20131;-85
2021/10/06 08:16:08;;;;;;;13.95;8.55;;;;;;;14.85;72.49;93781.44;5032644;28;20042;-84
2021/10/06 08:18:35;;;;;;;12.18;8.77;;;;;;;14.69;72.07;93788.78;5032465;28;20053;-85
2021/10/06 08:21:02;;;;;;;13.32;9.40;;;;;;;14.41;72.45;93764.31;5032067;28;20053;-84
2021/10/06 08:23:31;;;;;;;12.05;9.35;;;;;;;14.89;71.85;93789.53;5032204;28;20056;-84
2021/10/06 08:25:58;;;;;;;12.77;9.27;;;;;;;14.77;71.67;93782.53;5031906;28;20796;-86
2021/10/06 08:28:26;;;;;;;13.57;9.80;;;;;;;14.95;71.17;93755.81;5031985;28;20049;-85
2021/10/06 08:30:54;;;;;;;12.07;8.43;;;;;;;14.85;69.87;93745.22;5032183;28;20489;-86
2021/10/06 08:33:21;;;;;;;15.38;9.60;;;;;;;15.18;69.83;93782.72;5032161;28;20096;-85
2021/10/06 08:35:49;;;;;;;10.75;8.80;;;;;;;14.94;70.21;93776.72;5031861;28;20057;-85
2021/10/06 08:38:16;;;;;;;13.10;9.18;;;;;;;15.17;71.23;93734.56;5032251;28;20408;-85
2021/10/06 08:40:43;;;;;;;8.45;7.35;;;;;;;15.42;68.02;93766.44;5032245;28;20096;-84
2021/10/06 08:43:11;;;;;;;13.95;9.48;;;;;;;15.41;68.93;93767.44;5031912;28;20057;-85
2021/10/06 08:45:38;;;;;;;12.52;8.88;;;;;;;15.23;69.71;93771.72;5031634;28;20053;-84
2021/10/06 08:48:09;;;;;;;16.95;9.20;;;;;;;15.54;70.36;93780.16;5032000;28;20155;-84
2021/10/06 08:50:36;;;;;;;18.33;10.68;;;;;;;15.00;70.16;93762.91;5031765;28;20041;-84
2021/10/06 08:53:04;;;;;;;14.02;8.65;;;;;;;14.93;68.59;93690.59;5031654;28;20050;-84
2021/10/06 08:55:31;;;;;;;13.90;9.48;;;;;;;15.19;68.83;93778.34;5032064;28;20104;-85
2021/10/06 08:57:59;;;;;;;13.32;10.13;;;;;;;15.25;70.49;93769.69;5031510;28;20049;-85
2021/10/06 09:00:26;;;;;;;10.43;6.90;;;;;;;15.06;68.81;93774.97;5031988;28;20049;-85
2021/10/06 09:02:53;;;;;;;10.38;8.30;;;;;;;14.92;69.86;93776.97;5031368;28;20412;-86
2021/10/06 09:05:23;;;;;;;11.57;8.85;;;;;;;14.88;69.38;93755.16;5031106;28;20046;-84
2021/10/06 09:07:58;;;;;;;12.65;9.48;;;;;;;14.81;71.52;93741.50;5031873;28;20076;-84
2021/10/06 09:10:26;;;;;;;11.75;8.23;;;;;;;15.25;70.52;93774.06;5031966;28;20049;-85
2021/10/06 09:12:58;;;;;;;10.88;7.38;;;;;;;15.51;69.13;93746.97;5031678;28;20049;-84
2021/10/06 09:15:26;;;;;;;11.60;8.38;;;;;;;15.66;68.07;93769.00;5031711;28;20053;-84
2021/10/06 09:17:57;;;;;;;11.93;7.57;;;;;;;15.54;66.98;93763.81;5031672;28;20053;-85
2021/10/06 09:20:36;;;;;;;14.27;9.10;;;;;;;15.33;68.39;93743.44;5031514;28;20080;-85
2021/10/06 09:23:05;;;;;;;16.20;10.18;;;;;;;15.34;68.35;93739.88;5031613;28;20061;-85
2021/10/06 09:25:37;;;;;;;11.23;8.63;;;;;;;15.10;68.66;93723.56;5031588;28;20132;-85
2021/10/06 09:28:08;;;;;;;12.48;8.68;;;;;;;15.45;68.86;93768.53;5035888;28;20053;-83
2021/10/06 09:30:35;;;;;;;13.13;9.10;;;;;;;15.54;68.44;93777.56;5042593;28;20053;-84
2021/10/06 09:33:04;;;;;;;17.45;10.75;;;;;;;15.83;69.41;93769.84;5031217;28;20107;-84
2021/10/06 09:35:31;;;;;;;12.35;9.90;;;;;;;15.81;68.10;93743.41;5031362;28;20054;-84
2021/10/06 09:37:59;;;;;;;12.10;9.32;;;;;;;15.87;66.80;93718.38;5031124;28;20049;-84
2021/10/06 09:40:28;;;;;;;10.60;8.52;;;;;;;15.84;65.79;93732.56;5030811;28;20049;-84
2021/10/06 09:42:57;;;;;;;12.43;8.35;;;;;;;16.14;67.34;93721.25;5031136;28;20072;-85
2021/10/06 09:45:27;;;;;;;13.93;9.10;;;;;;;16.37;64.43;93713.59;5030914;28;20045;-82
2021/10/06 09:48:01;;;;;;;13.77;8.57;;;;;;;16.92;64.10;93735.53;5031045;28;20068;-83
2021/10/06 09:50:29;;;;;;;10.77;7.85;;;;;;;17.12;63.54;93730.91;5030984;28;20041;-84
2021/10/06 09:52:56;;;;;;;12.65;8.48;;;;;;;16.77;63.42;93722.31;5031029;28;20140;-87
2021/10/06 09:55:24;;;;;;;13.98;8.73;;;;;;;16.92;61.60;93737.31;5010203;28;20046;-84
2021/10/06 09:57:54;;;;;;;11.57;8.35;;;;;;;16.70;62.45;93735.41;5009289;28;20432;-85
2021/10/06 10:00:21;;;;;;;13.65;8.63;;;;;;;17.01;60.76;93722.13;5010845;28;20050;-87
2021/10/06 10:02:49;;;;;;;14.38;9.85;;;;;;;16.08;62.98;93667.78;5011216;28;20054;-86
2021/10/06 10:05:17;;;;;;;11.88;9.02;;;;;;;16.72;62.60;93724.81;5010758;28;20128;-84
2021/10/06 10:07:44;;;;;;;11.27;9.52;;;;;;;16.76;62.79;93712.94;5010734;28;20050;-85
2021/10/06 10:10:13;;;;;;;12.23;9.60;;;;;;;16.56;62.01;93686.44;5010565;28;20524;-84
2021/10/06 10:12:42;;;;;;;13.50;9.77;;;;;;;16.50;64.65;93715.91;5010120;28;20132;-84
2021/10/06 10:15:10;;;;;;;15.38;8.55;;;;;;;16.76;62.76;93700.75;5010446;28;20053;-84
2021/10/06 10:17:37;;;;;;;11.73;8.35;;;;;;;16.15;62.83;93670.19;5009564;28;20490;-84
2021/10/06 10:20:10;;;;;;;12.80;9.18;;;;;;;16.21;64.49;93704.78;5027530;28;20049;-87
2021/10/06 10:22:41;;;;;;;10.82;9.02;;;;;;;15.61;66.28;93713.47;5030329;28;20085;-85
2021/10/06 10:25:26;;;;;;;10.82;7.20;;;;;;;15.96;65.34;93714.44;5030023;28;20045;-85
2021/10/06 10:28:01;;;;;;;10.52;7.85;;;;;;;15.63;65.63;93651.91;5029896;28;20049;-85
2021/10/06 10:30:29;;;;;;;12.55;8.88;;;;;;;16.30;65.62;93709.34;5030333;28;20080;-85
2021/10/06 10:32:57;;;;;;;11.52;7.63;;;;;;;16.62;62.47;93709.88;5030016;28;20049;-87
2021/10/06 10:35:44;;;;;;;13.15;8.40;;;;;;;16.19;62.60;93662.78;5029366;28;20052;-86
2021/10/06 10:38:14;;;;;;;14.35;8.95;;;;;;;16.29;63.60;93640.38;5010470;28;20046;-84
2021/10/06 10:40:49;;;;;;;11.70;7.90;;;;;;;16.39;63.57;93676.06;5010140;28;20108;-85
2021/10/06 10:43:20;;;;;;;15.98;9.35;;;;;;;16.62;62.53;93696.91;5010108;28;20057;-86
2021/10/06 10:46:02;;;;;;;11.90;8.88;;;;;;;16.64;62.91;93672.31;5009971;28;20057;-86
2021/10/06 10:48:31;;;;;;;14.63;9.48;;;;;;;17.22;62.62;93682.50;5010152;28;20050;-85
2021/10/06 10:51:12;;;;;;;11.80;9.05;;;;;;;17.44;61.55;93660.16;5009641;28;20824;-84
2021/10/06 10:54:01;;;;;;;13.98;9.20;;;;;;;17.85;60.69;93681.44;5009838;28;20057;-85
2021/10/06 10:57:00;;;;;;;13.27;9.82;;;;;;;17.58;59.21;93652.81;5009812;28;20501;-86
2021/10/06 10:59:40;;;;;;;14.68;9.07;;;;;;;17.56;60.41;93663.47;5003000;28;20133;-84
2021/10/06 11:02:16;;;;;;;14.05;9.27;;;;;;;17.63;60.72;93674.44;5009557;28;20057;-85
2021/10/06 11:04:45;;;;;;;;;;;;;;;17.60;60.24;93674.91;5010574;28;20054;-85
2021/10/06 11:07:14;;;;;;;12.15;8.73;;;;;;;17.23;60.28;93652.91;5009382;28;19921;-84
2021/10/06 11:09:50;;;;;;;12.93;9.30;;;;;;;17.58;59.11;93653.59;5009600;28;20060;-86
2021/10/06 11:12:37;;;;;;;12.02;9.02;;;;;;;17.40;59.42;93630.53;5009700;28;20079;-84
2021/10/06 11:15:25;;;;;;;12.98;9.27;;;;;;;16.93;60.15;93630.69;5009404;28;20096;-84
2021/10/06 11:18:28;;;;;;;13.18;9.18;;;;;;;17.17;60.24;93655.69;5009497;28;20084;-83
2021/10/06 11:21:05;;;;;;;12.07;8.43;;;;;;;17.30;59.80;93662.34;5009531;28;20057;-83
2021/10/06 11:23:54;;;;;;;11.52;8.98;;;;;;;16.99;59.40;93599.63;5009078;28;20477;-84
2021/10/06 11:26:29;;;;;;;11.45;9.05;;;;;;;16.83;60.52;93586.44;5009462;28;20050;-83
2021/10/06 11:28:57;;;;;;;18.70;9.38;;;;;;;17.25;60.08;93657.88;5009735;28;20077;-85